METAR Data
IDs: Format: Raw Decoded Include TAF

Data at: 0241 UTC 25 Feb 2021

LSME 250220Z AUTO 00000KT 9000NDV NCD 01/00 Q1032 RMK